createdAt,value
2019-01-21T00:01:06.377Z,16.57
2019-01-21T00:03:46.097Z,16.17
2019-01-21T00:06:24.449Z,21.80
2019-01-21T00:09:02.457Z,19.77
2019-01-21T00:11:40.218Z,19.60
2019-01-21T00:14:18.686Z,19.37
2019-01-21T00:16:57.727Z,19.23
2019-01-21T00:19:37.582Z,16.30
2019-01-21T00:22:17.816Z,16.30
2019-01-21T00:28:38.069Z,15.03
2019-01-21T00:31:23.026Z,18.60
2019-01-21T00:34:04.559Z,18.47
2019-01-21T00:36:42.058Z,17.27
2019-01-21T00:39:30.204Z,18.20
2019-01-21T00:42:08.409Z,16.53
2019-01-21T00:44:46.692Z,16.50
2019-01-21T00:47:38.558Z,17.87
2019-01-21T00:50:18.031Z,16.13
2019-01-21T00:53:03.042Z,15.63
2019-01-21T00:55:43.978Z,19.30
2019-01-21T00:58:47.103Z,19.47
2019-01-21T01:01:27.389Z,18.17
2019-01-21T01:04:06.166Z,22.53
2019-01-21T01:06:47.112Z,21.27
2019-01-21T01:09:25.688Z,19.30
2019-01-21T01:12:02.754Z,18.47
2019-01-21T01:14:40.819Z,17.57
2019-01-21T01:17:19.172Z,18.80
2019-01-21T01:19:57.060Z,18.43
2019-01-21T01:22:36.997Z,21.40
2019-01-21T01:25:16.175Z,76.20
2019-01-21T01:27:57.875Z,42.67
2019-01-21T01:30:39.132Z,22.17
2019-01-21T01:33:20.528Z,18.33
2019-01-21T01:36:01.858Z,17.20
2019-01-21T01:38:39.193Z,16.07
2019-01-21T01:41:16.677Z,18.57
2019-01-21T01:43:55.366Z,17.37
2019-01-21T01:46:33.128Z,15.00
2019-01-21T01:49:16.246Z,15.77
2019-01-21T01:51:55.747Z,15.67
2019-01-21T01:54:34.751Z,14.50
2019-01-21T01:57:15.026Z,18.10
2019-01-21T01:59:53.899Z,18.03
2019-01-21T02:02:32.539Z,20.23
2019-01-21T02:05:10.291Z,20.60
2019-01-21T02:07:52.947Z,17.00
2019-01-21T02:10:31.990Z,17.13
2019-01-21T02:13:10.183Z,19.10
2019-01-21T02:15:48.789Z,114.30
2019-01-21T02:18:33.285Z,53.87
2019-01-21T02:21:18.857Z,27.80
2019-01-21T02:24:05.880Z,20.73
2019-01-21T02:27:10.627Z,22.60
2019-01-21T02:30:34.894Z,20.57
2019-01-21T02:33:56.008Z,21.43
2019-01-21T02:37:01.001Z,15.57
2019-01-21T02:40:15.408Z,14.93
2019-01-21T02:43:19.580Z,13.90
2019-01-21T02:46:23.479Z,15.60
2019-01-21T02:49:17.152Z,14.23
2019-01-21T02:52:27.602Z,14.17
2019-01-21T02:55:34.576Z,12.30
2019-01-21T02:58:29.624Z,14.50
2019-01-21T03:01:39.603Z,13.00
2019-01-21T03:04:52.058Z,12.83
2019-01-21T03:07:48.308Z,12.30
2019-01-21T03:10:42.466Z,11.73
2019-01-21T03:13:57.567Z,13.77
2019-01-21T03:17:17.152Z,13.30
2019-01-21T03:20:10.949Z,13.33
2019-01-21T03:23:43.405Z,13.87
2019-01-21T03:26:41.675Z,27.57
2019-01-21T03:29:50.340Z,19.80
2019-01-21T03:32:56.098Z,24.77
2019-01-21T03:36:21.489Z,25.20
2019-01-21T03:39:35.784Z,17.47
2019-01-21T03:42:19.947Z,16.87
2019-01-21T03:46:04.388Z,22.83
2019-01-21T03:48:52.260Z,28.37
2019-01-21T03:52:03.495Z,23.83
2019-01-21T03:55:00.621Z,40.70
2019-01-21T03:58:31.642Z,34.43
2019-01-21T04:01:42.136Z,44.80
2019-01-21T04:04:51.788Z,31.20
2019-01-21T04:07:51.496Z,25.40
2019-01-21T04:11:14.912Z,21.27
2019-01-21T04:14:26.828Z,20.33
2019-01-21T04:17:55.580Z,40.57
2019-01-21T04:20:56.871Z,32.57
2019-01-21T04:23:55.827Z,26.67
2019-01-21T04:26:55.541Z,23.93
2019-01-21T04:30:03.701Z,23.63
2019-01-21T04:33:17.878Z,20.47
2019-01-21T04:36:12.788Z,24.50
2019-01-21T04:39:33.195Z,18.43
2019-01-21T04:42:44.897Z,20.90
2019-01-21T04:45:47.979Z,19.33
2019-01-21T04:49:00.944Z,19.50
2019-01-21T04:52:03.957Z,22.50
2019-01-21T04:55:25.460Z,18.60
2019-01-21T04:58:36.154Z,26.40
2019-01-21T05:01:53.952Z,23.67
2019-01-21T05:05:10.559Z,24.50
2019-01-21T05:08:16.730Z,20.73
2019-01-21T05:11:37.206Z,21.13
2019-01-21T05:14:33.927Z,20.87
2019-01-21T05:18:01.821Z,19.83
2019-01-21T05:21:30.489Z,16.47
2019-01-21T05:24:46.629Z,16.43
2019-01-21T05:27:46.903Z,16.00
2019-01-21T05:30:59.552Z,16.77
2019-01-21T05:34:18.855Z,20.40
2019-01-21T05:37:24.477Z,21.63
2019-01-21T05:40:38.624Z,20.20
2019-01-21T05:44:15.428Z,16.90
2019-01-21T05:47:25.268Z,16.97
2019-01-21T05:50:44.608Z,51.90
2019-01-21T05:53:56.459Z,33.13
2019-01-21T05:57:14.347Z,25.57
2019-01-21T06:00:30.627Z,31.67
2019-01-21T06:03:52.381Z,24.77
2019-01-21T06:06:44.635Z,18.37
2019-01-21T06:09:51.310Z,16.17
2019-01-21T06:13:09.832Z,14.10
2019-01-21T06:16:23.515Z,17.80
2019-01-21T06:19:28.549Z,26.13
2019-01-21T06:22:32.481Z,19.13
2019-01-21T06:26:09.524Z,15.40
2019-01-21T06:29:36.955Z,15.33
2019-01-21T06:32:48.233Z,14.33
2019-01-21T06:35:38.261Z,15.20
2019-01-21T06:38:53.414Z,22.03
2019-01-21T06:42:00.160Z,16.03
2019-01-21T06:45:20.315Z,18.67
2019-01-21T06:48:49.835Z,17.47
2019-01-21T06:51:55.371Z,15.50
2019-01-21T06:55:05.591Z,16.43
2019-01-21T06:58:24.795Z,16.33
2019-01-21T07:01:35.623Z,17.40
2019-01-21T07:04:47.139Z,18.47
2019-01-21T07:08:22.301Z,16.37
2019-01-21T07:11:34.281Z,15.50
2019-01-21T07:14:41.756Z,14.40
2019-01-21T07:17:35.468Z,18.40
2019-01-21T07:20:34.708Z,14.77
2019-01-21T07:23:48.952Z,23.60
2019-01-21T07:26:47.953Z,26.33
2019-01-21T07:29:58.297Z,18.30
2019-01-21T07:33:03.486Z,15.30
2019-01-21T07:36:23.085Z,16.73
2019-01-21T07:39:37.492Z,22.70
2019-01-21T07:42:53.425Z,16.73
2019-01-21T07:45:59.826Z,15.03
2019-01-21T07:49:07.713Z,16.50
2019-01-21T07:52:13.740Z,18.37
2019-01-21T07:55:20.664Z,21.37
2019-01-21T07:58:59.287Z,17.30
2019-01-21T08:02:16.256Z,16.20
2019-01-21T08:05:31.290Z,14.10
2019-01-21T08:09:01.393Z,18.27
2019-01-21T08:12:17.598Z,15.87
2019-01-21T08:15:26.267Z,15.57
2019-01-21T08:18:57.945Z,14.80
2019-01-21T08:22:12.253Z,16.73
2019-01-21T08:25:51.936Z,17.00
2019-01-21T08:28:42.500Z,17.70
2019-01-21T08:32:02.738Z,24.90
2019-01-21T08:35:27.756Z,21.13
2019-01-21T08:38:40.364Z,21.50
2019-01-21T08:41:47.817Z,18.20
2019-01-21T08:45:04.073Z,19.40
2019-01-21T08:48:23.323Z,17.23
2019-01-21T08:51:24.315Z,18.33
2019-01-21T08:54:20.032Z,17.43
2019-01-21T08:57:42.184Z,17.63
2019-01-21T09:00:52.554Z,16.10
2019-01-21T09:03:55.129Z,15.20
2019-01-21T09:06:45.260Z,17.33
2019-01-21T09:09:50.618Z,15.77
2019-01-21T09:13:03.552Z,15.57
2019-01-21T09:16:24.617Z,15.30
2019-01-21T09:19:24.094Z,15.30
2019-01-21T09:22:18.008Z,14.83
2019-01-21T09:25:41.636Z,14.83
2019-01-21T09:29:04.209Z,15.80
2019-01-21T09:32:17.315Z,15.47
2019-01-21T09:35:42.549Z,19.67
2019-01-21T09:38:57.961Z,20.23
2019-01-21T09:42:09.296Z,17.20
2019-01-21T09:45:27.598Z,15.43
2019-01-21T09:48:01.917Z,14.73
2019-01-21T09:50:43.989Z,15.30
2019-01-21T09:53:26.685Z,14.10
2019-01-21T09:56:07.001Z,15.87
2019-01-21T09:58:48.257Z,14.93
2019-01-21T10:01:27.623Z,16.03
2019-01-21T10:04:08.227Z,14.93
2019-01-21T10:06:55.683Z,15.23
2019-01-21T10:09:44.259Z,15.67
2019-01-21T10:13:08.104Z,17.63
2019-01-21T10:16:30.719Z,18.57
2019-01-21T10:20:13.399Z,20.77
2019-01-21T10:23:32.841Z,18.67
2019-01-21T10:26:46.927Z,17.13
2019-01-21T10:29:59.579Z,16.43
2019-01-21T10:33:08.782Z,18.33
2019-01-21T10:36:27.789Z,19.23
2019-01-21T10:47:08.211Z,42.47
2019-01-21T10:50:45.437Z,341.10
2019-01-21T10:54:26.236Z,229.23
2019-01-21T10:57:50.851Z,305.77
2019-01-21T11:01:25.338Z,104.77
2019-01-21T11:04:38.897Z,58.27
2019-01-21T11:08:24.969Z,38.80
2019-01-21T11:11:58.668Z,43.83
2019-01-21T11:15:14.538Z,41.20
2019-01-21T11:18:15.207Z,41.20
2019-01-21T11:21:28.308Z,41.37
2019-01-21T11:24:47.803Z,40.37
2019-01-21T11:28:01.324Z,40.53
2019-01-21T11:31:41.215Z,42.87
2019-01-21T11:35:15.566Z,42.23
2019-01-21T11:38:35.825Z,42.73
2019-01-21T11:42:15.399Z,39.27
2019-01-21T11:45:14.189Z,40.20
2019-01-21T11:48:27.512Z,44.53
2019-01-21T11:51:47.606Z,42.80
2019-01-21T11:55:14.657Z,44.67
2019-01-21T11:58:41.969Z,55.47
2019-01-21T12:02:03.360Z,42.27
2019-01-21T12:05:13.685Z,40.07
2019-01-21T12:08:21.143Z,44.03
2019-01-21T12:11:23.407Z,45.93
2019-01-21T12:14:42.002Z,43.50
2019-01-21T12:18:03.230Z,62.60
2019-01-21T12:21:28.586Z,50.60
2019-01-21T12:24:50.277Z,43.77
2019-01-21T12:29:22.287Z,40.07
2019-01-21T12:31:21.522Z,39.60
2019-01-21T12:34:48.745Z,42.97
2019-01-21T12:37:58.297Z,42.17
2019-01-21T12:41:28.034Z,40.33
2019-01-21T12:44:59.744Z,46.07
2019-01-21T12:48:21.840Z,59.63
2019-01-21T12:51:36.372Z,52.47
2019-01-21T12:54:48.463Z,50.03
2019-01-21T12:58:21.231Z,46.07
2019-01-21T13:01:26.338Z,43.67
2019-01-21T13:04:25.011Z,42.17
2019-01-21T13:07:55.201Z,46.47
2019-01-21T13:11:19.895Z,44.47
2019-01-21T13:14:37.730Z,44.57
2019-01-21T13:17:49.143Z,42.97
2019-01-21T13:21:08.783Z,44.80
2019-01-21T13:24:15.424Z,45.30
2019-01-21T13:27:29.915Z,48.23
2019-01-21T13:30:37.874Z,41.57
2019-01-21T13:33:55.520Z,45.07
2019-01-21T13:37:17.208Z,42.97
2019-01-21T13:40:34.901Z,44.27
2019-01-21T13:43:33.806Z,41.67
2019-01-21T13:46:52.480Z,46.27
2019-01-21T13:50:07.656Z,49.37
2019-01-21T13:53:24.287Z,48.57
2019-01-21T13:57:03.516Z,48.83
2019-01-21T14:04:11.681Z,66.73
2019-01-21T14:07:35.019Z,49.47
2019-01-21T14:11:01.252Z,45.53
2019-01-21T14:14:04.867Z,43.00
2019-01-21T14:18:33.434Z,44.43
2019-01-21T14:21:35.424Z,47.20
2019-01-21T14:24:27.150Z,47.50
2019-01-21T14:27:52.818Z,215.53
2019-01-21T14:31:11.724Z,91.53
2019-01-21T14:34:04.930Z,56.90
2019-01-21T14:37:16.165Z,51.77
2019-01-21T14:40:20.530Z,50.40
2019-01-21T14:43:24.562Z,48.27
2019-01-21T14:47:01.652Z,46.63
2019-01-21T14:50:38.184Z,48.50
2019-01-21T14:57:07.862Z,44.40
2019-01-21T15:00:09.468Z,47.80
2019-01-21T15:03:38.500Z,46.30
2019-01-21T15:06:50.916Z,47.43
2019-01-21T15:10:17.859Z,50.13
2019-01-21T15:13:43.219Z,47.87
2019-01-21T15:17:23.665Z,53.23
2019-01-21T15:23:54.097Z,49.27
2019-01-21T15:30:37.450Z,48.23
2019-01-21T15:33:47.332Z,50.00
2019-01-21T15:37:18.902Z,49.13
2019-01-21T15:41:02.203Z,50.77
2019-01-21T15:43:54.893Z,47.83
2019-01-21T15:50:44.616Z,48.07
2019-01-21T15:53:52.638Z,49.73
2019-01-21T15:56:45.464Z,47.87
2019-01-21T16:00:00.275Z,46.90
2019-01-21T16:02:56.774Z,46.53
2019-01-21T16:06:30.433Z,49.77
2019-01-21T16:09:42.167Z,50.67
2019-01-21T16:17:06.945Z,50.17
2019-01-21T16:20:27.451Z,50.47
2019-01-21T16:24:24.003Z,50.90
2019-01-21T16:27:12.958Z,51.10
2019-01-21T16:30:40.928Z,53.07
2019-01-21T16:33:51.840Z,56.27
2019-01-21T16:37:09.462Z,50.77
2019-01-21T16:40:25.270Z,53.00
2019-01-21T16:43:02.151Z,53.83
2019-01-21T16:45:41.855Z,55.17
2019-01-21T16:48:25.101Z,55.77
2019-01-21T16:51:04.048Z,53.63
2019-01-21T16:53:47.425Z,54.20
2019-01-21T16:56:25.678Z,51.33
2019-01-21T16:59:06.764Z,60.77
2019-01-21T17:01:56.165Z,56.03
2019-01-21T17:04:34.440Z,57.73
2019-01-21T17:07:13.358Z,55.90
2019-01-21T17:09:52.921Z,53.77
2019-01-21T17:12:31.805Z,54.03
2019-01-21T17:15:13.885Z,57.07
2019-01-21T17:17:52.595Z,59.00
2019-01-21T17:20:31.801Z,54.67
2019-01-21T17:23:09.753Z,53.63
2019-01-21T17:25:51.137Z,56.00
2019-01-21T17:28:35.066Z,58.53
2019-01-21T17:31:13.008Z,56.77
2019-01-21T17:33:55.739Z,57.17
2019-01-21T17:36:35.656Z,56.93
2019-01-21T17:39:15.653Z,57.53
2019-01-21T17:41:55.005Z,56.97
2019-01-21T17:44:35.157Z,53.90
2019-01-21T17:47:16.268Z,60.03
2019-01-21T17:49:57.346Z,54.07
2019-01-21T17:52:36.306Z,57.23
2019-01-21T17:55:15.259Z,55.57
2019-01-21T17:57:57.310Z,57.03
2019-01-21T18:00:36.633Z,55.27
2019-01-21T18:03:17.119Z,57.00
2019-01-21T18:05:54.394Z,58.33
2019-01-21T18:08:32.342Z,59.17
2019-01-21T18:11:12.921Z,58.57
2019-01-21T18:13:56.421Z,57.53
2019-01-21T18:16:45.154Z,57.47
2019-01-21T18:19:23.000Z,53.97
2019-01-21T18:22:03.874Z,55.93
2019-01-21T18:24:42.049Z,57.00
2019-01-21T18:27:21.547Z,54.60
2019-01-21T18:29:59.620Z,56.47
2019-01-21T18:32:37.784Z,59.87
2019-01-21T18:35:18.171Z,57.67
2019-01-21T18:37:56.123Z,55.67
2019-01-21T18:40:47.020Z,59.00
2019-01-21T18:43:25.722Z,59.23
2019-01-21T18:46:05.581Z,53.97
2019-01-21T18:48:45.603Z,51.93
2019-01-21T18:51:22.955Z,55.43
2019-01-21T18:54:01.272Z,57.67
2019-01-21T18:56:39.747Z,55.47
2019-01-21T18:59:19.978Z,55.33
2019-01-21T19:01:57.511Z,59.90
2019-01-21T19:04:35.238Z,59.10
2019-01-21T19:07:12.888Z,54.70
2019-01-21T19:09:52.521Z,55.90
2019-01-21T19:12:32.036Z,55.00
2019-01-21T19:15:13.375Z,55.47
2019-01-21T19:17:52.551Z,54.63
2019-01-21T19:20:31.366Z,57.77
2019-01-21T19:23:12.557Z,53.87
2019-01-21T19:25:51.450Z,52.77
2019-01-21T19:28:31.690Z,55.23
2019-01-21T19:31:10.848Z,58.20
2019-01-21T19:33:49.949Z,59.57
2019-01-21T19:36:29.364Z,60.53
2019-01-21T19:39:07.692Z,58.77
2019-01-21T19:41:46.085Z,55.93
2019-01-21T19:44:26.441Z,55.97
2019-01-21T19:47:05.944Z,56.67
2019-01-21T19:49:43.797Z,58.97
2019-01-21T19:52:24.078Z,56.53
2019-01-21T19:55:04.909Z,56.33
2019-01-21T19:57:42.217Z,57.13
2019-01-21T20:00:21.894Z,57.90
2019-01-21T20:03:03.472Z,54.93
2019-01-21T20:05:41.675Z,55.93
2019-01-21T20:08:20.794Z,53.00
2019-01-21T20:10:58.858Z,57.23
2019-01-21T20:13:37.468Z,54.67
2019-01-21T20:16:15.374Z,56.17
2019-01-21T20:18:53.226Z,59.50
2019-01-21T20:21:31.742Z,59.27
2019-01-21T20:24:13.886Z,58.33
2019-01-21T20:26:52.306Z,55.20
2019-01-21T20:29:31.008Z,55.43
2019-01-21T20:32:08.342Z,53.00
2019-01-21T20:34:47.276Z,60.57
2019-01-21T20:37:25.948Z,56.53
2019-01-21T20:40:04.122Z,55.70
2019-01-21T20:42:45.679Z,59.33
2019-01-21T20:45:23.666Z,56.43
2019-01-21T20:48:02.916Z,60.10
2019-01-21T20:50:40.760Z,63.43
2019-01-21T20:53:20.199Z,61.20
2019-01-21T20:55:59.676Z,58.50
2019-01-21T20:58:37.187Z,58.83
2019-01-21T21:01:16.212Z,60.90
2019-01-21T21:03:55.550Z,58.40
2019-01-21T21:06:33.367Z,63.37
2019-01-21T21:09:13.616Z,59.07
2019-01-21T21:11:53.659Z,58.27
2019-01-21T21:14:32.093Z,61.80
2019-01-21T21:17:09.760Z,65.83
2019-01-21T21:19:47.390Z,67.50
2019-01-21T21:22:24.807Z,72.87
2019-01-21T21:25:03.068Z,66.57
2019-01-21T21:27:42.169Z,71.90
2019-01-21T21:30:23.840Z,66.57
2019-01-21T21:33:02.738Z,64.57
2019-01-21T21:35:40.084Z,69.13
2019-01-21T21:38:17.295Z,70.90
2019-01-21T21:40:54.647Z,65.20
2019-01-21T21:43:32.472Z,68.70
2019-01-21T21:46:13.395Z,76.17
2019-01-21T21:48:52.709Z,72.20
2019-01-21T21:51:32.030Z,72.40
2019-01-21T21:54:10.173Z,66.07
2019-01-21T21:56:49.346Z,68.87
2019-01-21T21:59:27.015Z,69.60
2019-01-21T22:02:06.858Z,65.97
2019-01-21T22:04:45.348Z,71.83
2019-01-21T22:07:25.663Z,72.77
2019-01-21T22:10:03.286Z,72.07
2019-01-21T22:12:41.699Z,81.90
2019-01-21T22:15:20.926Z,80.83
2019-01-21T22:17:58.585Z,82.07
2019-01-21T22:20:37.994Z,83.57
2019-01-21T22:23:15.959Z,83.93
2019-01-21T22:25:53.245Z,85.93
2019-01-21T22:28:31.539Z,79.60
2019-01-21T22:31:12.482Z,90.40
2019-01-21T22:33:50.736Z,80.93
2019-01-21T22:36:27.785Z,80.07
2019-01-21T22:39:10.566Z,77.67
2019-01-21T22:41:50.126Z,81.60
2019-01-21T22:44:28.983Z,83.23
2019-01-21T22:47:09.324Z,81.37
2019-01-21T22:49:48.566Z,86.67
2019-01-21T22:52:29.284Z,79.30
2019-01-21T22:55:06.739Z,80.57
2019-01-21T22:57:43.464Z,79.17
2019-01-21T23:01:05.357Z,83.60
2019-01-21T23:03:42.669Z,94.03
2019-01-21T23:06:21.789Z,93.57
2019-01-21T23:09:01.948Z,84.60
2019-01-21T23:11:46.008Z,82.43
2019-01-21T23:14:25.762Z,81.77
2019-01-21T23:17:03.972Z,81.17
2019-01-21T23:19:41.459Z,84.33
2019-01-21T23:22:20.521Z,78.73
2019-01-21T23:24:58.377Z,83.40
2019-01-21T23:27:37.908Z,85.17
2019-01-21T23:30:23.181Z,83.17
2019-01-21T23:33:01.381Z,91.00
2019-01-21T23:35:41.655Z,90.83
2019-01-21T23:38:22.080Z,86.77
2019-01-21T23:41:00.264Z,83.30
2019-01-21T23:43:38.107Z,85.77
2019-01-21T23:46:19.712Z,93.13
2019-01-21T23:48:58.786Z,81.23
2019-01-21T23:51:36.546Z,80.33
2019-01-21T23:54:15.271Z,86.03
2019-01-21T23:56:54.020Z,83.30
2019-01-21T23:59:33.399Z,82.10
